»·PEaware :: N4922Z KMMH-KBOI

N4922Z :: KMMH-KBOI

FLIGHT INFORMATION

Flight Status: Arrived
Operator: Privately registered:
United States
More flights under this callsign
Pilot: William N. (15320)
Aircraft: MITSUBISHI MU-2 MARQUISE
(MU2)
More flights by this aircraft type
Origin: KMMH Mammoth Yosemite
United States
Destination: KBOI Boise Air Terminal/Gowen
United States
More flights between these airports :: More routes between these airports
Route: +NIKOL HZN SDO NEERO SADYL3
File this flight plan on PilotEdge
Remarks:
Altitude:
(Current/Filed)
25,000ft
Speed:
(Current/Filed)
275kts
Departed: 18-Mar-18 12:15 PM
Arrived: 18-Mar-18 01:59 PM
Distance/Time
Traveled:
376nm/1:43
Distance/Time
To Go:
Arrived

Flight Plot

Page will automatically refresh every two minutes.

Flight plan parsing failed; only flown route is shown


Map Options




Map Legend


Flown Route
Filed Route
Departure Airport
Arrival Airport
Navaid (VOR, NDB)
Fix

Horizontal Profiles

Position Reports

Time Latitude Longitude Heading Altitude Ground
Speed
18-Mar-18 11:57 37.627118 -118.844367 201 7102ft 0kts
18-Mar-18 11:58 37.627118 -118.844367 201 7102ft 0kts
18-Mar-18 11:59 37.627118 -118.844367 201 7102ft 0kts
18-Mar-18 12:00 37.627118 -118.844367 201 7102ft 0kts
18-Mar-18 12:01 37.627118 -118.844367 201 7102ft 0kts
18-Mar-18 12:02 37.627118 -118.844367 201 7102ft 0kts
18-Mar-18 12:03 37.627118 -118.844367 201 7102ft 0kts
18-Mar-18 12:04 37.627118 -118.844367 201 7102ft 0kts
18-Mar-18 12:05 37.627118 -118.844367 201 7102ft 0kts
18-Mar-18 12:06 37.627118 -118.844367 201 7102ft 0kts
18-Mar-18 12:07 37.627119 -118.844367 200 7102ft 0kts
18-Mar-18 12:08 37.626328 -118.842031 112 7102ft 2kts
18-Mar-18 12:09 37.624990 -118.838860 109 7102ft 18kts
18-Mar-18 12:10 37.623977 -118.835178 108 7102ft 14kts
18-Mar-18 12:11 37.622234 -118.828799 107 7102ft 21kts
18-Mar-18 12:12 37.621700 -118.827163 157 7102ft 1kts
18-Mar-18 12:13 37.621238 -118.827255 201 7102ft 7kts
18-Mar-18 12:14 37.621953 -118.831090 289 7102ft 90kts
18-Mar-18 12:15 37.636197 -118.881267 288 8779ft 167kts
18-Mar-18 12:16 37.670766 -118.868500 66 10640ft 183kts
18-Mar-18 12:17 37.690475 -118.809286 67 12713ft 186kts
18-Mar-18 12:18 37.707836 -118.746586 66 14706ft 194kts
18-Mar-18 12:19 37.722347 -118.678487 65 16543ft 208kts
18-Mar-18 12:20 37.736950 -118.605990 65 18355ft 224kts
18-Mar-18 12:21 37.777274 -118.579072 338 20370ft 183kts
18-Mar-18 12:22 37.822562 -118.604477 326 22708ft 181kts
18-Mar-18 12:23 37.875533 -118.634857 328 23426ft 236kts
18-Mar-18 12:24 37.935980 -118.667184 329 25069ft 232kts
18-Mar-18 12:25 38.003550 -118.693998 341 25160ft 278kts
18-Mar-18 12:26 38.083858 -118.699805 346 25188ft 289kts
18-Mar-18 12:27 38.159159 -118.717842 335 25200ft 275kts
18-Mar-18 12:28 38.234837 -118.735776 339 25198ft 277kts
18-Mar-18 12:29 38.310668 -118.751219 345 25197ft 280kts
18-Mar-18 12:30 38.387709 -118.763061 342 25197ft 279kts
18-Mar-18 12:31 38.462284 -118.777292 342 25390ft 280kts
18-Mar-18 12:32 38.539227 -118.794398 340 25262ft 281kts
18-Mar-18 12:33 38.616069 -118.809896 341 25221ft 283kts
18-Mar-18 12:34 38.693490 -118.825068 343 25174ft 284kts
18-Mar-18 12:35 38.770882 -118.838255 339 25397ft 271kts
18-Mar-18 12:36 38.846286 -118.855220 341 25158ft 280kts
18-Mar-18 12:37 38.922155 -118.869737 343 25157ft 282kts
18-Mar-18 12:38 38.997829 -118.886761 341 25218ft 277kts
18-Mar-18 12:39 39.072827 -118.904829 341 25226ft 276kts
18-Mar-18 12:40 39.148518 -118.918791 341 25289ft 274kts
18-Mar-18 12:41 39.223919 -118.935162 340 25334ft 274kts
18-Mar-18 12:42 39.287143 -118.948244 343 25270ft 277kts
18-Mar-18 12:43 39.376400 -118.962262 341 25345ft 269kts
18-Mar-18 12:44 39.449525 -118.983406 347 25275ft 276kts
18-Mar-18 12:45 39.524503 -118.994853 357 25375ft 284kts
18-Mar-18 12:46 39.600513 -118.946825 13 25302ft 304kts
18-Mar-18 12:47 39.665463 -118.915753 13 25280ft 304kts
18-Mar-18 12:48 39.754291 -118.864278 14 25348ft 303kts
18-Mar-18 12:49 39.817407 -118.826896 2 25283ft 291kts
18-Mar-18 12:50 39.907904 -118.796230 11 25583ft 293kts
18-Mar-18 12:51 39.970564 -118.756877 10 25296ft 302kts
18-Mar-18 12:52 40.046399 -118.715241 10 25412ft 296kts
18-Mar-18 12:53 40.134960 -118.667540 9 25219ft 296kts
18-Mar-18 12:54 40.198480 -118.633392 10 25220ft 296kts
18-Mar-18 12:55 40.274391 -118.595269 356 25218ft 279kts
18-Mar-18 12:56 40.351281 -118.569855 7 25218ft 291kts
18-Mar-18 12:57 40.427585 -118.534021 8 25217ft 292kts
18-Mar-18 12:58 40.503524 -118.496317 9 25217ft 293kts
18-Mar-18 12:59 40.579443 -118.458201 9 25216ft 293kts
18-Mar-18 13:00 40.655944 -118.419711 9 25217ft 298kts
18-Mar-18 13:01 40.733837 -118.380318 10 25215ft 301kts
18-Mar-18 13:02 40.810833 -118.340879 12 25197ft 302kts
18-Mar-18 13:03 40.888526 -118.300302 11 25196ft 299kts
18-Mar-18 13:04 40.965942 -118.260732 11 25196ft 299kts
18-Mar-18 13:05 41.043116 -118.221306 10 25195ft 297kts
18-Mar-18 13:06 41.118432 -118.182939 10 25203ft 295kts
18-Mar-18 13:07 41.195161 -118.144017 10 25204ft 297kts
18-Mar-18 13:08 41.272006 -118.104452 11 25204ft 297kts
18-Mar-18 13:09 41.348719 -118.064866 11 25203ft 296kts
18-Mar-18 13:10 41.425934 -118.035234 354 25205ft 280kts
18-Mar-18 13:11 41.503023 -118.036037 350 25202ft 277kts
18-Mar-18 13:12 41.580189 -118.037576 350 25201ft 278kts
18-Mar-18 13:13 41.657566 -118.036205 2 25199ft 287kts
18-Mar-18 13:14 41.735614 -118.027153 353 25201ft 282kts
18-Mar-18 13:15 41.814684 -118.024864 355 25135ft 288kts
18-Mar-18 13:16 41.894644 -117.999178 5 25135ft 297kts
18-Mar-18 13:17 41.974701 -117.972421 5 25135ft 297kts
18-Mar-18 13:18 42.054878 -117.945593 5 25006ft 302kts
18-Mar-18 13:19 42.138458 -117.917649 7 23729ft 322kts
18-Mar-18 13:20 42.225836 -117.888175 8 22682ft 321kts
18-Mar-18 13:21 42.309230 -117.859979 8 22214ft 304kts
18-Mar-18 13:22 42.390430 -117.832519 9 21685ft 302kts
18-Mar-18 13:23 42.463362 -117.780464 44 21138ft 310kts
18-Mar-18 13:24 42.518001 -117.693571 46 21133ft 298kts
18-Mar-18 13:25 42.570000 -117.607580 41 21131ft 291kts
18-Mar-18 13:26 42.619926 -117.523371 45 21499ft 280kts
18-Mar-18 13:27 42.669589 -117.440262 45 21473ft 287kts
18-Mar-18 13:28 42.720010 -117.355608 46 21458ft 289kts
18-Mar-18 13:29 42.770511 -117.270678 47 21434ft 290kts
18-Mar-18 13:30 42.821513 -117.184310 48 21010ft 303kts
18-Mar-18 13:31 42.831755 -117.166987 48 20789ft 308kts
18-Mar-18 13:32 42.831755 -117.166987 48 20789ft 308kts
18-Mar-18 13:33 42.864995 -117.110487 49 19855ft 323kts
18-Mar-18 13:34 42.920647 -117.015608 50 18290ft 319kts
18-Mar-18 13:35 42.974267 -116.923751 50 16553ft 302kts
18-Mar-18 13:36 43.025310 -116.836199 49 14771ft 290kts
18-Mar-18 13:37 43.073248 -116.754669 48 13700ft 262kts
18-Mar-18 13:38 43.117847 -116.679201 48 12222ft 267kts
18-Mar-18 13:39 43.164448 -116.600092 47 10759ft 268kts
18-Mar-18 13:40 43.210665 -116.525032 44 9867ft 238kts
18-Mar-18 13:41 43.251853 -116.460114 44 9085ft 227kts
18-Mar-18 13:42 43.295934 -116.390646 44 8304ft 254kts
18-Mar-18 13:43 43.315519 -116.297225 84 7515ft 270kts
18-Mar-18 13:44 43.320709 -116.202284 84 6332ft 235kts
18-Mar-18 13:45 43.324586 -116.120553 84 5996ft 192kts
18-Mar-18 13:46 43.327943 -116.046192 83 6006ft 203kts
18-Mar-18 13:47 43.331099 -115.968900 83 5994ft 199kts
18-Mar-18 13:48 43.349387 -115.906627 23 5999ft 180kts
18-Mar-18 13:49 43.394353 -115.875988 22 6004ft 182kts
18-Mar-18 13:50 43.436700 -115.879294 315 6000ft 161kts
18-Mar-18 13:51 43.462715 -115.924371 296 6010ft 144kts
18-Mar-18 13:52 43.479542 -115.972778 296 6001ft 136kts
18-Mar-18 13:53 43.495530 -116.019009 296 5749ft 134kts
18-Mar-18 13:54 43.511734 -116.066129 296 5011ft 137kts
18-Mar-18 13:55 43.526468 -116.110420 297 4209ft 119kts
18-Mar-18 13:56 43.540618 -116.149623 295 3641ft 107kts
18-Mar-18 13:57 43.553150 -116.186818 296 3117ft 107kts
18-Mar-18 13:58 43.563348 -116.216483 320 2842ft 19kts
18-Mar-18 13:59 43.564870 -116.217546 293 2842ft 11kts
18-Mar-18 14:00 43.566576 -116.222557 295 2842ft 15kts
18-Mar-18 14:01 43.568519 -116.226690 319 2842ft 12kts
18-Mar-18 14:02 43.569136 -116.226924 359 2842ft 0kts

Navigation Log

Ident Type
Flight plan parsing failed, navigation log unavailable